Meiringen Airport LSMM

Airport Data

Name: Meiringen Airport

Ident: LSMM

Lat: 46.74330139

Long: 8.109999657

Elevation: 1895 ft

IataCode:

City:

Metar

2021/09/28 07:20
LSMM 280720Z 05015KT 9999 BKN025 13/10 Q1023 RMK BLU

Taf

2021/09/27 17:00
TAF LSMM 271625Z 2717/2823 22003KT 9999 BKN120
TEMPO 2723/2804 SHRA
Add a Webcam Url. We will unlock it as soon is possible. Thank you:
Url: Title: